TimePST,TemperatureF,Dew PointF,Humidity,Sea Level PressureIn,VisibilityMPH,Wind Direction,Wind SpeedMPH,Gust SpeedMPH,PrecipitationIn,Events,Conditions,WindDirDegrees,DateUTC
12:20 AM,45.0,43.0,93,30.31,7.0,SW,3.5,-,N/A,,Overcast,220,2014-01-22 08:20:00
12:53 AM,45.0,43.0,93,30.33,3.0,SW,6.9,-,N/A,,Overcast,230,2014-01-22 08:53:00
12:59 AM,45.0,43.0,93,30.31,2.5,SW,6.9,-,N/A,,Overcast,230,2014-01-22 08:59:00
1:40 AM,44.1,43.0,96,30.31,5.0,WSW,5.8,-,N/A,,Overcast,250,2014-01-22 09:40:00
1:53 AM,44.1,43.0,96,30.33,7.0,West,5.8,-,N/A,,Overcast,270,2014-01-22 09:53:00
2:27 AM,45.0,44.1,97,30.33,4.0,Variable,3.5,-,N/A,,Overcast,0,2014-01-22 10:27:00
2:42 AM,42.1,39.9,92,30.34,2.0,North,5.8,-,N/A,,Overcast,10,2014-01-22 10:42:00
2:47 AM,42.8,41.0,93,30.34,1.8,NNE,3.5,-,N/A,,Overcast,20,2014-01-22 10:47:00
2:53 AM,42.1,41.0,96,30.35,1.8,North,3.5,-,N/A,,Overcast,350,2014-01-22 10:53:00
3:03 AM,42.1,41.0,96,30.35,1.8,North,3.5,-,N/A,,Overcast,360,2014-01-22 11:03:00
3:14 AM,42.1,41.0,96,30.35,1.8,North,3.5,-,N/A,,Overcast,360,2014-01-22 11:14:00
3:43 AM,42.1,41.0,96,30.35,2.0,Calm,Calm,-,N/A,,Overcast,0,2014-01-22 11:43:00
3:53 AM,42.1,41.0,96,30.37,2.0,NNW,3.5,-,N/A,,Overcast,330,2014-01-22 11:53:00
4:04 AM,42.1,39.9,92,30.35,3.0,WNW,3.5,-,N/A,,Overcast,300,2014-01-22 12:04:00
4:53 AM,41.0,39.0,93,30.37,9.0,NNW,3.5,-,N/A,,Overcast,340,2014-01-22 12:53:00
5:23 AM,41.0,39.0,93,30.36,8.0,North,3.5,-,N/A,,Overcast,10,2014-01-22 13:23:00
5:47 AM,39.2,37.4,93,30.36,8.0,North,3.5,-,N/A,,Overcast,10,2014-01-22 13:47:00
5:53 AM,39.0,37.9,96,30.38,8.0,North,3.5,-,N/A,,Overcast,360,2014-01-22 13:53:00
6:06 AM,39.0,37.9,96,30.36,7.0,North,3.5,-,N/A,,Overcast,350,2014-01-22 14:06:00
6:13 AM,39.0,37.9,96,30.36,7.0,Calm,Calm,-,N/A,,Overcast,0,2014-01-22 14:13:00
6:38 AM,37.0,36.0,96,30.36,1.8,Calm,Calm,-,N/A,,Overcast,0,2014-01-22 14:38:00
6:53 AM,36.0,35.1,97,30.38,0.2,Calm,Calm,-,N/A,Fog,Fog,0,2014-01-22 14:53:00
7:53 AM,35.1,35.1,100,30.38,0.2,Calm,Calm,-,N/A,Fog,Fog,0,2014-01-22 15:53:00
8:53 AM,37.0,36.0,96,30.38,0.2,Calm,Calm,-,N/A,Fog,Fog,0,2014-01-22 16:53:00
9:53 AM,39.0,37.9,96,30.39,0.5,Calm,Calm,-,N/A,Fog,Fog,0,2014-01-22 17:53:00
10:17 AM,39.9,39.0,97,30.38,1.5,Calm,Calm,-,N/A,,Overcast,0,2014-01-22 18:17:00
10:26 AM,41.0,39.9,96,30.38,3.0,Calm,Calm,-,N/A,,Overcast,0,2014-01-22 18:26:00
10:53 AM,41.0,39.9,96,30.41,6.0,Calm,Calm,-,N/A,,Overcast,0,2014-01-22 18:53:00
11:53 AM,42.1,39.9,92,30.41,9.0,Calm,Calm,-,N/A,,Overcast,0,2014-01-22 19:53:00
12:38 PM,44.1,41.0,89,30.39,7.0,NE,3.5,-,N/A,,Overcast,50,2014-01-22 20:38:00
12:53 PM,44.1,41.0,89,30.40,7.0,NE,3.5,-,N/A,,Overcast,50,2014-01-22 20:53:00
1:28 PM,45.0,42.1,90,30.39,7.0,East,3.5,-,N/A,,Overcast,80,2014-01-22 21:28:00
1:53 PM,46.0,42.1,86,30.40,7.0,Calm,Calm,-,N/A,,Overcast,0,2014-01-22 21:53:00
2:11 PM,46.9,43.0,86,30.38,9.0,NNE,3.5,-,N/A,,Overcast,30,2014-01-22 22:11:00
2:31 PM,46.9,42.1,83,30.37,10.0,North,4.6,-,N/A,,Overcast,350,2014-01-22 22:31:00
2:53 PM,46.0,42.1,86,30.40,10.0,North,5.8,-,N/A,,Overcast,360,2014-01-22 22:53:00
3:53 PM,46.0,41.0,83,30.40,10.0,North,4.6,-,N/A,,Overcast,350,2014-01-22 23:53:00
4:53 PM,44.1,41.0,89,30.38,10.0,NNW,4.6,-,N/A,,Overcast,330,2014-01-23 00:53:00
5:03 PM,44.1,41.0,89,30.37,10.0,NNW,5.8,-,N/A,,Overcast,340,2014-01-23 01:03:00
5:53 PM,42.1,39.9,92,30.38,7.0,North,3.5,-,N/A,,Mostly Cloudy,10,2014-01-23 01:53:00
6:00 PM,42.1,39.9,92,30.37,5.0,North,3.5,-,N/A,,Overcast,350,2014-01-23 02:00:00
6:24 PM,43.0,41.0,93,30.37,7.0,North,3.5,-,N/A,,Overcast,360,2014-01-23 02:24:00
6:37 PM,42.1,39.9,92,30.37,7.0,North,4.6,-,N/A,,Scattered Clouds,10,2014-01-23 02:37:00
6:53 PM,42.1,39.0,89,30.39,10.0,NNE,4.6,-,N/A,,Partly Cloudy,20,2014-01-23 02:53:00
7:30 PM,42.1,39.9,92,30.38,10.0,NNE,3.5,-,N/A,,Mostly Cloudy,30,2014-01-23 03:30:00
7:53 PM,42.1,39.9,92,30.40,10.0,Calm,Calm,-,N/A,,Overcast,0,2014-01-23 03:53:00
8:33 PM,43.0,39.9,89,30.39,10.0,ENE,3.5,-,N/A,,Overcast,60,2014-01-23 04:33:00
8:53 PM,42.1,39.9,92,30.41,10.0,East,3.5,-,N/A,,Overcast,80,2014-01-23 04:53:00
9:53 PM,42.1,39.0,89,30.43,10.0,NE,4.6,-,N/A,,Overcast,50,2014-01-23 05:53:00
10:53 PM,42.1,37.9,85,30.43,10.0,NE,4.6,-,N/A,,Overcast,50,2014-01-23 06:53:00
11:53 PM,42.1,39.0,89,30.44,10.0,Calm,Calm,-,N/A,,Overcast,0,2014-01-23 07:53:00